sensor_id;sensor_type;location;lat;lon;timestamp;temperature;humidity
7814;DHT22;3952;48.364;16.022;2022-08-06T00:01:58;25.20;99.90
7814;DHT22;3952;48.364;16.022;2022-08-06T00:04:25;25.20;99.90
7814;DHT22;3952;48.364;16.022;2022-08-06T00:06:52;25.20;99.90
7814;DHT22;3952;48.364;16.022;2022-08-06T00:09:19;25.20;99.90
7814;DHT22;3952;48.364;16.022;2022-08-06T00:11:47;25.20;99.90
7814;DHT22;3952;48.364;16.022;2022-08-06T00:14:14;25.20;99.90
7814;DHT22;3952;48.364;16.022;2022-08-06T00:16:41;25.10;99.90
7814;DHT22;3952;48.364;16.022;2022-08-06T00:19:10;25.10;99.90
7814;DHT22;3952;48.364;16.022;2022-08-06T00:21:37;25.10;99.90
7814;DHT22;3952;48.364;16.022;2022-08-06T00:24:05;25.10;99.90
7814;DHT22;3952;48.364;16.022;2022-08-06T00:26:32;25.10;99.90
7814;DHT22;3952;48.364;16.022;2022-08-06T00:28:59;25.00;99.90
7814;DHT22;3952;48.364;16.022;2022-08-06T00:31:27;25.00;99.90
7814;DHT22;3952;48.364;16.022;2022-08-06T00:33:54;25.00;99.90
7814;DHT22;3952;48.364;16.022;2022-08-06T00:36:24;25.00;99.90
7814;DHT22;3952;48.364;16.022;2022-08-06T00:38:51;24.90;99.90
7814;DHT22;3952;48.364;16.022;2022-08-06T00:41:19;24.90;99.90
7814;DHT22;3952;48.364;16.022;2022-08-06T00:43:47;24.90;99.90
7814;DHT22;3952;48.364;16.022;2022-08-06T00:46:14;24.80;99.90
7814;DHT22;3952;48.364;16.022;2022-08-06T00:48:42;24.80;99.90
7814;DHT22;3952;48.364;16.022;2022-08-06T00:51:09;24.80;99.90
7814;DHT22;3952;48.364;16.022;2022-08-06T00:53:37;24.80;99.90
7814;DHT22;3952;48.364;16.022;2022-08-06T00:56:05;24.80;99.90
7814;DHT22;3952;48.364;16.022;2022-08-06T00:58:32;24.90;99.90
7814;DHT22;3952;48.364;16.022;2022-08-06T01:01:00;24.90;99.90
7814;DHT22;3952;48.364;16.022;2022-08-06T01:03:27;24.90;99.90
7814;DHT22;3952;48.364;16.022;2022-08-06T01:05:55;24.90;99.90
7814;DHT22;3952;48.364;16.022;2022-08-06T01:08:22;24.90;99.90
7814;DHT22;3952;48.364;16.022;2022-08-06T01:10:50;25.00;99.90
7814;DHT22;3952;48.364;16.022;2022-08-06T01:13:18;25.00;99.90
7814;DHT22;3952;48.364;16.022;2022-08-06T01:15:51;25.10;99.90
7814;DHT22;3952;48.364;16.022;2022-08-06T01:18:22;25.10;99.90
7814;DHT22;3952;48.364;16.022;2022-08-06T01:20:59;25.10;99.90
7814;DHT22;3952;48.364;16.022;2022-08-06T01:23:43;25.10;99.90
7814;DHT22;3952;48.364;16.022;2022-08-06T01:26:40;25.10;99.90
7814;DHT22;3952;48.364;16.022;2022-08-06T01:29:17;25.10;99.90
7814;DHT22;3952;48.364;16.022;2022-08-06T01:31:50;25.00;99.90
7814;DHT22;3952;48.364;16.022;2022-08-06T01:34:23;24.90;99.90
7814;DHT22;3952;48.364;16.022;2022-08-06T01:36:59;24.90;99.90
7814;DHT22;3952;48.364;16.022;2022-08-06T01:39:29;24.80;99.90
7814;DHT22;3952;48.364;16.022;2022-08-06T01:41:58;24.70;99.90
7814;DHT22;3952;48.364;16.022;2022-08-06T01:44:31;24.70;99.90
7814;DHT22;3952;48.364;16.022;2022-08-06T01:47:03;24.60;99.90
7814;DHT22;3952;48.364;16.022;2022-08-06T01:49:34;24.50;99.90
7814;DHT22;3952;48.364;16.022;2022-08-06T01:52:04;24.50;99.90
7814;DHT22;3952;48.364;16.022;2022-08-06T01:54:36;24.40;99.90
7814;DHT22;3952;48.364;16.022;2022-08-06T01:57:05;24.40;99.90
7814;DHT22;3952;48.364;16.022;2022-08-06T01:59:37;24.20;99.90
7814;DHT22;3952;48.364;16.022;2022-08-06T02:02:07;24.00;99.90
7814;DHT22;3952;48.364;16.022;2022-08-06T02:04:39;23.80;99.90
7814;DHT22;3952;48.364;16.022;2022-08-06T02:07:09;23.60;99.90
7814;DHT22;3952;48.364;16.022;2022-08-06T02:09:38;23.50;99.90
7814;DHT22;3952;48.364;16.022;2022-08-06T02:12:10;23.30;99.90
7814;DHT22;3952;48.364;16.022;2022-08-06T02:14:42;23.20;99.90
7814;DHT22;3952;48.364;16.022;2022-08-06T02:17:16;23.10;99.90
7814;DHT22;3952;48.364;16.022;2022-08-06T02:19:46;22.90;99.90
7814;DHT22;3952;48.364;16.022;2022-08-06T02:22:14;22.80;99.90
7814;DHT22;3952;48.364;16.022;2022-08-06T02:24:44;22.70;99.90
7814;DHT22;3952;48.364;16.022;2022-08-06T02:27:12;22.60;99.90
7814;DHT22;3952;48.364;16.022;2022-08-06T02:29:42;22.60;99.90
7814;DHT22;3952;48.364;16.022;2022-08-06T02:32:11;22.60;99.90
7814;DHT22;3952;48.364;16.022;2022-08-06T02:34:40;22.60;99.90
7814;DHT22;3952;48.364;16.022;2022-08-06T02:37:17;22.60;99.90
7814;DHT22;3952;48.364;16.022;2022-08-06T02:39:49;22.50;99.90
7814;DHT22;3952;48.364;16.022;2022-08-06T02:42:20;22.50;99.90
7814;DHT22;3952;48.364;16.022;2022-08-06T02:44:58;22.50;99.90
7814;DHT22;3952;48.364;16.022;2022-08-06T02:47:31;22.60;99.90
7814;DHT22;3952;48.364;16.022;2022-08-06T02:50:03;22.60;99.90
7814;DHT22;3952;48.364;16.022;2022-08-06T02:52:39;22.60;99.90
7814;DHT22;3952;48.364;16.022;2022-08-06T02:55:11;22.60;99.90
7814;DHT22;3952;48.364;16.022;2022-08-06T02:57:42;22.50;99.90
7814;DHT22;3952;48.364;16.022;2022-08-06T03:00:14;22.50;99.90
7814;DHT22;3952;48.364;16.022;2022-08-06T03:02:44;22.50;99.90
7814;DHT22;3952;48.364;16.022;2022-08-06T03:05:15;22.40;99.90
7814;DHT22;3952;48.364;16.022;2022-08-06T03:07:45;22.40;99.90
7814;DHT22;3952;48.364;16.022;2022-08-06T03:10:15;22.40;99.90
7814;DHT22;3952;48.364;16.022;2022-08-06T03:12:45;22.30;99.90
7814;DHT22;3952;48.364;16.022;2022-08-06T03:15:15;22.30;99.90
7814;DHT22;3952;48.364;16.022;2022-08-06T03:17:46;22.30;99.90
7814;DHT22;3952;48.364;16.022;2022-08-06T03:20:19;22.30;99.90
7814;DHT22;3952;48.364;16.022;2022-08-06T03:22:49;22.30;99.90
7814;DHT22;3952;48.364;16.022;2022-08-06T03:25:18;22.20;99.90
7814;DHT22;3952;48.364;16.022;2022-08-06T03:27:46;22.20;99.90
7814;DHT22;3952;48.364;16.022;2022-08-06T03:30:17;22.20;99.90
7814;DHT22;3952;48.364;16.022;2022-08-06T03:32:45;22.10;99.90
7814;DHT22;3952;48.364;16.022;2022-08-06T03:35:13;22.10;99.90
7814;DHT22;3952;48.364;16.022;2022-08-06T03:37:42;22.00;99.90
7814;DHT22;3952;48.364;16.022;2022-08-06T03:40:11;22.00;99.90
7814;DHT22;3952;48.364;16.022;2022-08-06T03:42:39;21.90;99.90
7814;DHT22;3952;48.364;16.022;2022-08-06T03:45:07;21.80;99.90
7814;DHT22;3952;48.364;16.022;2022-08-06T03:47:40;21.80;99.90
7814;DHT22;3952;48.364;16.022;2022-08-06T03:50:10;21.80;99.90
7814;DHT22;3952;48.364;16.022;2022-08-06T03:52:39;21.70;99.90
7814;DHT22;3952;48.364;16.022;2022-08-06T03:55:11;21.80;99.90
7814;DHT22;3952;48.364;16.022;2022-08-06T03:57:46;21.80;99.90
7814;DHT22;3952;48.364;16.022;2022-08-06T04:00:16;21.80;99.90
7814;DHT22;3952;48.364;16.022;2022-08-06T04:02:47;21.80;99.90
7814;DHT22;3952;48.364;16.022;2022-08-06T04:05:17;21.80;99.90
7814;DHT22;3952;48.364;16.022;2022-08-06T04:07:45;21.80;99.90
7814;DHT22;3952;48.364;16.022;2022-08-06T04:10:14;21.80;99.90
7814;DHT22;3952;48.364;16.022;2022-08-06T04:12:42;21.80;99.90
7814;DHT22;3952;48.364;16.022;2022-08-06T04:15:11;21.80;99.90
7814;DHT22;3952;48.364;16.022;2022-08-06T04:17:40;21.70;99.90
7814;DHT22;3952;48.364;16.022;2022-08-06T04:20:13;21.70;99.90
7814;DHT22;3952;48.364;16.022;2022-08-06T04:22:40;21.70;99.90
7814;DHT22;3952;48.364;16.022;2022-08-06T04:25:08;21.70;99.90
7814;DHT22;3952;48.364;16.022;2022-08-06T04:27:38;21.70;99.90
7814;DHT22;3952;48.364;16.022;2022-08-06T04:30:07;21.70;99.90
7814;DHT22;3952;48.364;16.022;2022-08-06T04:32:35;21.70;99.90
7814;DHT22;3952;48.364;16.022;2022-08-06T04:35:06;21.60;99.90
7814;DHT22;3952;48.364;16.022;2022-08-06T04:37:36;21.70;99.90
7814;DHT22;3952;48.364;16.022;2022-08-06T04:40:06;21.70;99.90
7814;DHT22;3952;48.364;16.022;2022-08-06T04:42:34;21.60;99.90
7814;DHT22;3952;48.364;16.022;2022-08-06T04:45:01;21.70;99.90
7814;DHT22;3952;48.364;16.022;2022-08-06T04:47:31;21.70;99.90
7814;DHT22;3952;48.364;16.022;2022-08-06T04:49:58;21.70;99.90
7814;DHT22;3952;48.364;16.022;2022-08-06T04:52:26;21.70;99.90
7814;DHT22;3952;48.364;16.022;2022-08-06T04:54:56;21.70;99.90
7814;DHT22;3952;48.364;16.022;2022-08-06T04:57:23;21.70;99.90
7814;DHT22;3952;48.364;16.022;2022-08-06T04:59:50;21.70;99.90
7814;DHT22;3952;48.364;16.022;2022-08-06T05:02:17;21.80;99.90
7814;DHT22;3952;48.364;16.022;2022-08-06T05:04:46;21.80;99.90
7814;DHT22;3952;48.364;16.022;2022-08-06T05:07:22;21.80;99.90
7814;DHT22;3952;48.364;16.022;2022-08-06T05:09:51;21.80;99.90
7814;DHT22;3952;48.364;16.022;2022-08-06T05:12:24;21.90;99.90
7814;DHT22;3952;48.364;16.022;2022-08-06T05:14:54;21.90;99.90
7814;DHT22;3952;48.364;16.022;2022-08-06T05:17:32;21.90;99.90
7814;DHT22;3952;48.364;16.022;2022-08-06T05:20:02;21.90;99.90
7814;DHT22;3952;48.364;16.022;2022-08-06T05:22:32;21.90;99.90
7814;DHT22;3952;48.364;16.022;2022-08-06T05:25:00;22.00;99.90
7814;DHT22;3952;48.364;16.022;2022-08-06T05:27:29;21.90;99.90
7814;DHT22;3952;48.364;16.022;2022-08-06T05:29:56;22.00;99.90
7814;DHT22;3952;48.364;16.022;2022-08-06T05:32:23;22.00;99.90
7814;DHT22;3952;48.364;16.022;2022-08-06T05:34:51;22.00;99.90
7814;DHT22;3952;48.364;16.022;2022-08-06T05:37:18;22.00;99.90
7814;DHT22;3952;48.364;16.022;2022-08-06T05:39:45;22.00;99.90
7814;DHT22;3952;48.364;16.022;2022-08-06T05:42:12;22.00;99.90
7814;DHT22;3952;48.364;16.022;2022-08-06T05:44:41;22.00;99.90
7814;DHT22;3952;48.364;16.022;2022-08-06T05:47:12;22.10;99.90
7814;DHT22;3952;48.364;16.022;2022-08-06T05:49:44;22.00;99.90
7814;DHT22;3952;48.364;16.022;2022-08-06T05:52:19;22.00;99.90
7814;DHT22;3952;48.364;16.022;2022-08-06T05:54:51;22.00;99.90
7814;DHT22;3952;48.364;16.022;2022-08-06T05:57:24;22.00;99.90
7814;DHT22;3952;48.364;16.022;2022-08-06T05:59:58;22.00;99.90
7814;DHT22;3952;48.364;16.022;2022-08-06T06:02:27;22.00;99.90
7814;DHT22;3952;48.364;16.022;2022-08-06T06:04:55;22.10;99.90
7814;DHT22;3952;48.364;16.022;2022-08-06T06:07:23;22.10;99.90
7814;DHT22;3952;48.364;16.022;2022-08-06T06:09:52;22.10;99.90
7814;DHT22;3952;48.364;16.022;2022-08-06T06:12:22;22.10;99.90
7814;DHT22;3952;48.364;16.022;2022-08-06T06:14:50;22.10;99.90
7814;DHT22;3952;48.364;16.022;2022-08-06T06:17:38;22.10;99.90
7814;DHT22;3952;48.364;16.022;2022-08-06T06:20:14;22.10;99.90
7814;DHT22;3952;48.364;16.022;2022-08-06T06:22:51;22.10;99.90
7814;DHT22;3952;48.364;16.022;2022-08-06T06:25:24;22.10;99.90
7814;DHT22;3952;48.364;16.022;2022-08-06T06:27:57;21.90;99.90
7814;DHT22;3952;48.364;16.022;2022-08-06T06:30:30;21.90;99.90
7814;DHT22;3952;48.364;16.022;2022-08-06T06:33:09;21.90;99.90
7814;DHT22;3952;48.364;16.022;2022-08-06T06:35:47;21.90;99.90
7814;DHT22;3952;48.364;16.022;2022-08-06T06:38:26;21.80;99.90
7814;DHT22;3952;48.364;16.022;2022-08-06T06:41:00;21.70;99.90
7814;DHT22;3952;48.364;16.022;2022-08-06T06:43:35;21.60;99.90
7814;DHT22;3952;48.364;16.022;2022-08-06T06:46:06;21.60;99.90
7814;DHT22;3952;48.364;16.022;2022-08-06T06:48:42;21.60;99.90
7814;DHT22;3952;48.364;16.022;2022-08-06T06:51:13;21.50;99.90
7814;DHT22;3952;48.364;16.022;2022-08-06T06:53:45;21.40;99.90
7814;DHT22;3952;48.364;16.022;2022-08-06T06:56:16;21.40;99.90
7814;DHT22;3952;48.364;16.022;2022-08-06T06:58:48;21.30;99.90
7814;DHT22;3952;48.364;16.022;2022-08-06T07:01:18;21.30;99.90
7814;DHT22;3952;48.364;16.022;2022-08-06T07:03:49;21.20;99.90
7814;DHT22;3952;48.364;16.022;2022-08-06T07:06:17;21.30;99.90
7814;DHT22;3952;48.364;16.022;2022-08-06T07:08:47;21.20;99.90
7814;DHT22;3952;48.364;16.022;2022-08-06T07:11:19;21.20;99.90
7814;DHT22;3952;48.364;16.022;2022-08-06T07:13:47;21.20;99.90
7814;DHT22;3952;48.364;16.022;2022-08-06T07:16:17;21.20;99.90
7814;DHT22;3952;48.364;16.022;2022-08-06T07:18:46;21.20;99.90
7814;DHT22;3952;48.364;16.022;2022-08-06T07:21:15;21.20;99.90
7814;DHT22;3952;48.364;16.022;2022-08-06T07:23:46;21.20;99.90
7814;DHT22;3952;48.364;16.022;2022-08-06T07:26:17;21.10;99.90
7814;DHT22;3952;48.364;16.022;2022-08-06T07:28:46;21.10;99.90
7814;DHT22;3952;48.364;16.022;2022-08-06T07:31:15;21.10;99.90
7814;DHT22;3952;48.364;16.022;2022-08-06T07:33:44;21.10;99.90
7814;DHT22;3952;48.364;16.022;2022-08-06T07:36:16;21.10;99.90
7814;DHT22;3952;48.364;16.022;2022-08-06T07:38:44;21.10;99.90
7814;DHT22;3952;48.364;16.022;2022-08-06T07:41:13;21.10;99.90
7814;DHT22;3952;48.364;16.022;2022-08-06T07:43:48;21.10;99.90
7814;DHT22;3952;48.364;16.022;2022-08-06T07:46:21;21.10;99.90
7814;DHT22;3952;48.364;16.022;2022-08-06T07:48:53;21.20;99.90
7814;DHT22;3952;48.364;16.022;2022-08-06T07:51:23;21.20;99.90
7814;DHT22;3952;48.364;16.022;2022-08-06T07:53:52;21.30;99.90
7814;DHT22;3952;48.364;16.022;2022-08-06T07:56:20;21.40;99.90
7814;DHT22;3952;48.364;16.022;2022-08-06T07:58:49;21.40;99.90
7814;DHT22;3952;48.364;16.022;2022-08-06T08:01:18;21.40;99.90
7814;DHT22;3952;48.364;16.022;2022-08-06T08:03:46;21.50;99.90
7814;DHT22;3952;48.364;16.022;2022-08-06T08:06:32;21.50;99.90
7814;DHT22;3952;48.364;16.022;2022-08-06T08:09:02;21.50;99.90
7814;DHT22;3952;48.364;16.022;2022-08-06T08:11:31;21.50;99.90
7814;DHT22;3952;48.364;16.022;2022-08-06T08:13:59;21.50;99.90
7814;DHT22;3952;48.364;16.022;2022-08-06T08:16:28;21.50;99.90
7814;DHT22;3952;48.364;16.022;2022-08-06T08:18:56;21.50;99.90
7814;DHT22;3952;48.364;16.022;2022-08-06T08:21:23;21.40;99.90
7814;DHT22;3952;48.364;16.022;2022-08-06T08:23:53;21.40;99.90
7814;DHT22;3952;48.364;16.022;2022-08-06T08:26:21;21.40;99.90
7814;DHT22;3952;48.364;16.022;2022-08-06T08:28:49;21.30;99.90
7814;DHT22;3952;48.364;16.022;2022-08-06T08:31:16;21.30;99.90
7814;DHT22;3952;48.364;16.022;2022-08-06T08:33:44;21.20;99.90
7814;DHT22;3952;48.364;16.022;2022-08-06T08:36:11;21.30;99.90
7814;DHT22;3952;48.364;16.022;2022-08-06T08:38:39;21.20;99.90
7814;DHT22;3952;48.364;16.022;2022-08-06T08:41:15;21.20;99.90
7814;DHT22;3952;48.364;16.022;2022-08-06T08:43:46;21.20;99.90
7814;DHT22;3952;48.364;16.022;2022-08-06T08:46:15;21.20;99.90
7814;DHT22;3952;48.364;16.022;2022-08-06T08:48:45;21.20;99.90
7814;DHT22;3952;48.364;16.022;2022-08-06T08:51:14;21.10;99.90
7814;DHT22;3952;48.364;16.022;2022-08-06T08:53:47;21.00;99.90
7814;DHT22;3952;48.364;16.022;2022-08-06T08:56:16;20.90;99.90
7814;DHT22;3952;48.364;16.022;2022-08-06T08:58:43;20.90;99.90
7814;DHT22;3952;48.364;16.022;2022-08-06T09:01:11;20.90;99.90
7814;DHT22;3952;48.364;16.022;2022-08-06T09:03:40;20.70;99.90
7814;DHT22;3952;48.364;16.022;2022-08-06T09:06:08;20.70;99.90
7814;DHT22;3952;48.364;16.022;2022-08-06T09:08:35;20.60;99.90
7814;DHT22;3952;48.364;16.022;2022-08-06T09:11:03;20.60;99.90
7814;DHT22;3952;48.364;16.022;2022-08-06T09:13:33;20.60;99.90
7814;DHT22;3952;48.364;16.022;2022-08-06T09:16:00;20.50;99.90
7814;DHT22;3952;48.364;16.022;2022-08-06T09:18:28;20.50;99.90
7814;DHT22;3952;48.364;16.022;2022-08-06T09:20:55;20.40;99.90
7814;DHT22;3952;48.364;16.022;2022-08-06T09:23:22;20.40;99.90
7814;DHT22;3952;48.364;16.022;2022-08-06T09:25:51;20.40;99.90
7814;DHT22;3952;48.364;16.022;2022-08-06T09:28:32;20.40;99.90
7814;DHT22;3952;48.364;16.022;2022-08-06T09:31:03;20.40;99.90
7814;DHT22;3952;48.364;16.022;2022-08-06T09:33:32;20.30;99.90
7814;DHT22;3952;48.364;16.022;2022-08-06T09:36:03;20.30;99.90
7814;DHT22;3952;48.364;16.022;2022-08-06T09:38:31;20.20;99.90
7814;DHT22;3952;48.364;16.022;2022-08-06T09:41:08;20.20;99.90
7814;DHT22;3952;48.364;16.022;2022-08-06T09:43:38;20.10;99.90
7814;DHT22;3952;48.364;16.022;2022-08-06T09:46:07;20.10;99.90
7814;DHT22;3952;48.364;16.022;2022-08-06T09:48:35;20.20;99.90
7814;DHT22;3952;48.364;16.022;2022-08-06T09:51:02;20.20;99.90
7814;DHT22;3952;48.364;16.022;2022-08-06T09:53:29;20.20;99.90
7814;DHT22;3952;48.364;16.022;2022-08-06T09:55:57;20.20;99.90
7814;DHT22;3952;48.364;16.022;2022-08-06T09:58:29;20.20;99.90
7814;DHT22;3952;48.364;16.022;2022-08-06T10:01:13;20.20;99.90
7814;DHT22;3952;48.364;16.022;2022-08-06T10:03:41;20.30;99.90
7814;DHT22;3952;48.364;16.022;2022-08-06T10:06:10;20.40;99.90
7814;DHT22;3952;48.364;16.022;2022-08-06T10:08:38;20.40;99.90
7814;DHT22;3952;48.364;16.022;2022-08-06T10:11:05;20.50;99.90
7814;DHT22;3952;48.364;16.022;2022-08-06T10:13:34;20.60;99.90
7814;DHT22;3952;48.364;16.022;2022-08-06T10:16:16;20.70;99.90
7814;DHT22;3952;48.364;16.022;2022-08-06T10:18:45;20.80;99.90
7814;DHT22;3952;48.364;16.022;2022-08-06T10:21:14;20.90;99.90
7814;DHT22;3952;48.364;16.022;2022-08-06T10:23:46;21.00;99.90
7814;DHT22;3952;48.364;16.022;2022-08-06T10:26:18;21.10;99.90
7814;DHT22;3952;48.364;16.022;2022-08-06T10:28:48;21.20;99.90
7814;DHT22;3952;48.364;16.022;2022-08-06T10:31:18;21.30;99.90
7814;DHT22;3952;48.364;16.022;2022-08-06T10:33:49;21.40;99.90
7814;DHT22;3952;48.364;16.022;2022-08-06T10:36:20;21.50;99.90
7814;DHT22;3952;48.364;16.022;2022-08-06T10:38:50;21.50;99.90
7814;DHT22;3952;48.364;16.022;2022-08-06T10:41:17;21.50;99.90
7814;DHT22;3952;48.364;16.022;2022-08-06T10:43:45;21.60;99.90
7814;DHT22;3952;48.364;16.022;2022-08-06T10:46:13;21.60;99.90
7814;DHT22;3952;48.364;16.022;2022-08-06T10:48:44;21.70;99.90
7814;DHT22;3952;48.364;16.022;2022-08-06T10:51:13;21.80;99.90
7814;DHT22;3952;48.364;16.022;2022-08-06T10:53:42;21.80;99.90
7814;DHT22;3952;48.364;16.022;2022-08-06T10:56:16;21.90;99.90
7814;DHT22;3952;48.364;16.022;2022-08-06T10:58:44;21.90;99.90
7814;DHT22;3952;48.364;16.022;2022-08-06T11:01:19;21.90;99.90
7814;DHT22;3952;48.364;16.022;2022-08-06T11:04:05;22.00;99.90
7814;DHT22;3952;48.364;16.022;2022-08-06T11:07:02;22.00;99.90
7814;DHT22;3952;48.364;16.022;2022-08-06T11:10:14;21.90;99.90
7814;DHT22;3952;48.364;16.022;2022-08-06T11:12:50;21.90;99.90
7814;DHT22;3952;48.364;16.022;2022-08-06T11:15:19;21.90;99.90
7814;DHT22;3952;48.364;16.022;2022-08-06T11:17:47;22.00;99.90
7814;DHT22;3952;48.364;16.022;2022-08-06T11:20:35;22.00;99.90
7814;DHT22;3952;48.364;16.022;2022-08-06T11:23:25;22.10;99.90
7814;DHT22;3952;48.364;16.022;2022-08-06T11:25:53;22.20;99.90
7814;DHT22;3952;48.364;16.022;2022-08-06T11:28:58;22.20;99.90
7814;DHT22;3952;48.364;16.022;2022-08-06T11:31:33;22.30;99.90
7814;DHT22;3952;48.364;16.022;2022-08-06T11:34:02;22.40;99.90
7814;DHT22;3952;48.364;16.022;2022-08-06T11:36:47;22.40;99.90
7814;DHT22;3952;48.364;16.022;2022-08-06T11:39:16;22.40;99.90
7814;DHT22;3952;48.364;16.022;2022-08-06T11:41:57;22.40;99.90
7814;DHT22;3952;48.364;16.022;2022-08-06T11:44:26;22.40;99.90
7814;DHT22;3952;48.364;16.022;2022-08-06T11:47:16;22.50;99.90
7814;DHT22;3952;48.364;16.022;2022-08-06T11:49:46;22.60;99.90
7814;DHT22;3952;48.364;16.022;2022-08-06T11:52:40;22.70;99.90
7814;DHT22;3952;48.364;16.022;2022-08-06T11:55:09;22.70;99.90
7814;DHT22;3952;48.364;16.022;2022-08-06T11:57:37;22.70;99.90
7814;DHT22;3952;48.364;16.022;2022-08-06T12:00:15;22.80;99.90
7814;DHT22;3952;48.364;16.022;2022-08-06T12:02:56;22.80;99.90
7814;DHT22;3952;48.364;16.022;2022-08-06T12:05:38;22.70;99.90
7814;DHT22;3952;48.364;16.022;2022-08-06T12:08:24;22.60;99.90
7814;DHT22;3952;48.364;16.022;2022-08-06T12:13:56;22.50;99.90
7814;DHT22;3952;48.364;16.022;2022-08-06T12:16:42;22.40;99.90
7814;DHT22;3952;48.364;16.022;2022-08-06T12:19:13;22.40;99.90
7814;DHT22;3952;48.364;16.022;2022-08-06T12:21:42;22.30;99.90
7814;DHT22;3952;48.364;16.022;2022-08-06T12:24:11;22.20;99.90
7814;DHT22;3952;48.364;16.022;2022-08-06T12:26:39;22.20;99.90
7814;DHT22;3952;48.364;16.022;2022-08-06T12:29:07;22.20;99.90
7814;DHT22;3952;48.364;16.022;2022-08-06T12:31:37;22.10;99.90
7814;DHT22;3952;48.364;16.022;2022-08-06T12:34:05;22.10;99.90
7814;DHT22;3952;48.364;16.022;2022-08-06T12:36:34;22.10;99.90
7814;DHT22;3952;48.364;16.022;2022-08-06T12:39:05;22.20;99.90
7814;DHT22;3952;48.364;16.022;2022-08-06T12:41:38;22.20;99.90
7814;DHT22;3952;48.364;16.022;2022-08-06T12:44:08;22.20;99.90
7814;DHT22;3952;48.364;16.022;2022-08-06T12:46:36;22.20;99.90
7814;DHT22;3952;48.364;16.022;2022-08-06T12:49:05;22.20;99.90
7814;DHT22;3952;48.364;16.022;2022-08-06T12:51:33;22.20;99.90
7814;DHT22;3952;48.364;16.022;2022-08-06T12:54:03;22.30;99.90
7814;DHT22;3952;48.364;16.022;2022-08-06T12:56:33;22.30;99.90
7814;DHT22;3952;48.364;16.022;2022-08-06T12:59:05;22.30;99.90
7814;DHT22;3952;48.364;16.022;2022-08-06T13:01:35;22.30;99.90
7814;DHT22;3952;48.364;16.022;2022-08-06T13:04:07;22.30;99.90
7814;DHT22;3952;48.364;16.022;2022-08-06T13:06:37;22.30;99.90
7814;DHT22;3952;48.364;16.022;2022-08-06T13:09:05;22.30;99.90
7814;DHT22;3952;48.364;16.022;2022-08-06T13:11:34;22.30;99.90
7814;DHT22;3952;48.364;16.022;2022-08-06T13:14:11;22.40;99.90
7814;DHT22;3952;48.364;16.022;2022-08-06T13:16:44;22.40;99.90
7814;DHT22;3952;48.364;16.022;2022-08-06T13:19:12;22.50;99.90
7814;DHT22;3952;48.364;16.022;2022-08-06T13:21:40;22.50;99.90
7814;DHT22;3952;48.364;16.022;2022-08-06T13:24:08;22.50;99.90
7814;DHT22;3952;48.364;16.022;2022-08-06T13:26:48;22.50;99.90
7814;DHT22;3952;48.364;16.022;2022-08-06T13:29:19;22.20;99.90
7814;DHT22;3952;48.364;16.022;2022-08-06T13:31:59;22.60;99.90
7814;DHT22;3952;48.364;16.022;2022-08-06T13:34:27;22.60;99.90
7814;DHT22;3952;48.364;16.022;2022-08-06T13:36:56;22.60;99.90
7814;DHT22;3952;48.364;16.022;2022-08-06T13:39:26;22.60;99.90
7814;DHT22;3952;48.364;16.022;2022-08-06T13:42:07;22.60;99.90
7814;DHT22;3952;48.364;16.022;2022-08-06T13:44:40;22.60;99.90
7814;DHT22;3952;48.364;16.022;2022-08-06T13:47:09;22.60;99.90
7814;DHT22;3952;48.364;16.022;2022-08-06T13:49:38;22.60;99.90
7814;DHT22;3952;48.364;16.022;2022-08-06T13:52:06;22.60;99.90
7814;DHT22;3952;48.364;16.022;2022-08-06T13:54:33;22.60;99.90
7814;DHT22;3952;48.364;16.022;2022-08-06T13:57:02;22.60;99.90
7814;DHT22;3952;48.364;16.022;2022-08-06T13:59:30;22.60;99.90
7814;DHT22;3952;48.364;16.022;2022-08-06T14:02:00;22.60;99.90
7814;DHT22;3952;48.364;16.022;2022-08-06T14:04:28;22.70;99.90
7814;DHT22;3952;48.364;16.022;2022-08-06T14:06:56;22.70;99.90
7814;DHT22;3952;48.364;16.022;2022-08-06T14:09:25;22.70;99.90
7814;DHT22;3952;48.364;16.022;2022-08-06T14:11:55;22.60;99.90
7814;DHT22;3952;48.364;16.022;2022-08-06T14:14:24;22.60;99.90
7814;DHT22;3952;48.364;16.022;2022-08-06T14:16:52;22.60;99.90
7814;DHT22;3952;48.364;16.022;2022-08-06T14:19:21;22.50;99.90
7814;DHT22;3952;48.364;16.022;2022-08-06T14:21:48;22.50;99.90
7814;DHT22;3952;48.364;16.022;2022-08-06T14:24:16;22.50;99.90
7814;DHT22;3952;48.364;16.022;2022-08-06T14:26:43;22.50;99.90
7814;DHT22;3952;48.364;16.022;2022-08-06T14:29:10;22.50;99.90
7814;DHT22;3952;48.364;16.022;2022-08-06T14:31:38;22.40;99.90
7814;DHT22;3952;48.364;16.022;2022-08-06T14:34:05;22.30;99.90
7814;DHT22;3952;48.364;16.022;2022-08-06T14:36:33;22.40;99.90
7814;DHT22;3952;48.364;16.022;2022-08-06T14:39:01;22.30;99.90
7814;DHT22;3952;48.364;16.022;2022-08-06T14:41:28;22.40;99.90
7814;DHT22;3952;48.364;16.022;2022-08-06T14:44:13;22.40;99.90
7814;DHT22;3952;48.364;16.022;2022-08-06T14:46:57;22.40;99.90
7814;DHT22;3952;48.364;16.022;2022-08-06T14:49:25;22.40;99.90
7814;DHT22;3952;48.364;16.022;2022-08-06T14:51:53;22.30;99.90
7814;DHT22;3952;48.364;16.022;2022-08-06T14:54:21;22.30;99.90
7814;DHT22;3952;48.364;16.022;2022-08-06T14:56:48;22.40;99.90
7814;DHT22;3952;48.364;16.022;2022-08-06T14:59:15;22.40;99.90
7814;DHT22;3952;48.364;16.022;2022-08-06T15:01:43;22.40;99.90
7814;DHT22;3952;48.364;16.022;2022-08-06T15:04:11;22.30;99.90
7814;DHT22;3952;48.364;16.022;2022-08-06T15:06:38;22.30;99.90
7814;DHT22;3952;48.364;16.022;2022-08-06T15:09:07;22.30;99.90
7814;DHT22;3952;48.364;16.022;2022-08-06T15:11:34;22.30;99.90
7814;DHT22;3952;48.364;16.022;2022-08-06T15:14:02;22.20;99.90
7814;DHT22;3952;48.364;16.022;2022-08-06T15:16:29;22.20;99.90
7814;DHT22;3952;48.364;16.022;2022-08-06T15:18:57;22.20;99.90
7814;DHT22;3952;48.364;16.022;2022-08-06T15:21:26;22.20;99.90
7814;DHT22;3952;48.364;16.022;2022-08-06T15:23:54;22.10;99.90
7814;DHT22;3952;48.364;16.022;2022-08-06T15:26:24;22.10;99.90
7814;DHT22;3952;48.364;16.022;2022-08-06T15:28:51;22.10;99.90
7814;DHT22;3952;48.364;16.022;2022-08-06T15:31:19;22.10;99.90
7814;DHT22;3952;48.364;16.022;2022-08-06T15:33:46;22.10;99.90
7814;DHT22;3952;48.364;16.022;2022-08-06T15:36:14;22.00;99.90
7814;DHT22;3952;48.364;16.022;2022-08-06T15:38:41;22.00;99.90
7814;DHT22;3952;48.364;16.022;2022-08-06T15:41:08;22.00;99.90
7814;DHT22;3952;48.364;16.022;2022-08-06T15:43:37;22.00;99.90
7814;DHT22;3952;48.364;16.022;2022-08-06T15:46:04;22.00;99.90
7814;DHT22;3952;48.364;16.022;2022-08-06T15:48:32;22.00;99.90
7814;DHT22;3952;48.364;16.022;2022-08-06T15:51:00;22.00;99.90
7814;DHT22;3952;48.364;16.022;2022-08-06T15:53:28;22.10;99.90
7814;DHT22;3952;48.364;16.022;2022-08-06T15:55:55;22.00;99.90
7814;DHT22;3952;48.364;16.022;2022-08-06T15:58:22;22.00;99.90
7814;DHT22;3952;48.364;16.022;2022-08-06T16:00:51;22.00;99.90
7814;DHT22;3952;48.364;16.022;2022-08-06T16:03:19;22.00;99.90
7814;DHT22;3952;48.364;16.022;2022-08-06T16:05:46;21.90;99.90
7814;DHT22;3952;48.364;16.022;2022-08-06T16:08:14;21.90;99.90
7814;DHT22;3952;48.364;16.022;2022-08-06T16:10:42;21.90;99.90